Time;durP1;ratioP1;P1;durP2;ratioP2;P2;SDS_P1;SDS_P2;PMS_P1;PMS_P2;Temp;Humidity;BMP_temperature;BMP_pressure;BME280_temperature;BME280_humidity;BME280_pressure;Samples;Min_cycle;Max_cycle;Signal;HPM_P1;HPM_P2
2021/11/01 00:01:37;;;;;;;5.40;4.90;;;13.40;99.90;;;;;;4987560;28;20045;-53
2021/11/01 00:04:03;;;;;;;5.28;4.78;;;13.40;99.90;;;;;;4987237;28;20109;-54
2021/11/01 00:06:32;;;;;;;5.65;5.05;;;13.40;99.90;;;;;;4987820;28;20026;-52
2021/11/01 00:09:00;;;;;;;5.22;4.53;;;13.40;99.90;;;;;;4987314;28;20084;-51
2021/11/01 00:11:25;;;;;;;7.30;4.65;;;13.30;99.90;;;;;;4987110;28;20030;-49
2021/11/01 00:13:51;;;;;;;5.72;4.82;;;13.30;99.90;;;;;;4987492;28;20121;-50
2021/11/01 00:16:17;;;;;;;5.43;4.68;;;13.30;99.90;;;;;;4986811;28;20022;-54
2021/11/01 00:18:43;;;;;;;8.02;4.95;;;13.30;99.90;;;;;;4986172;28;20034;-54
2021/11/01 00:21:09;;;;;;;5.90;4.82;;;13.30;99.90;;;;;;4987295;28;20122;-51
2021/11/01 00:23:35;;;;;;;4.03;3.63;;;13.40;99.90;;;;;;4987297;28;20026;-49
2021/11/01 00:26:01;;;;;;;5.15;2.90;;;13.40;99.90;;;;;;4987632;28;20079;-49
2021/11/01 00:28:26;;;;;;;4.00;2.60;;;13.40;99.90;;;;;;4984843;28;20046;-49
2021/11/01 00:30:56;;;;;;;2.42;1.88;;;13.60;99.90;;;;;;4983105;28;20034;-54
2021/11/01 00:33:22;;;;;;;2.15;1.80;;;13.60;99.90;;;;;;4984308;28;20113;-52
2021/11/01 00:35:49;;;;;;;2.30;2.10;;;13.70;99.90;;;;;;4985001;28;20065;-51
2021/11/01 00:38:15;;;;;;;2.63;2.20;;;13.80;99.90;;;;;;4987951;28;20030;-54
2021/11/01 00:40:41;;;;;;;2.90;2.00;;;13.90;99.90;;;;;;4987779;28;20117;-53
2021/11/01 00:43:09;;;;;;;2.28;2.08;;;13.90;99.90;;;;;;4987258;28;20154;-56
2021/11/01 00:45:35;;;;;;;5.28;1.88;;;13.90;99.90;;;;;;4987313;28;20445;-52
2021/11/01 00:48:02;;;;;;;2.10;1.90;;;14.00;99.90;;;;;;4987147;28;20037;-56
2021/11/01 00:50:28;;;;;;;2.67;2.40;;;14.00;99.90;;;;;;4987178;28;20523;-56
2021/11/01 00:52:55;;;;;;;2.65;2.17;;;14.00;99.90;;;;;;4990364;28;20469;-51
2021/11/01 00:55:23;;;;;;;2.70;2.42;;;14.00;99.90;;;;;;4991723;28;20052;-55
2021/11/01 00:57:50;;;;;;;2.30;2.10;;;14.00;99.90;;;;;;4987430;28;20056;-54
2021/11/01 01:00:16;;;;;;;2.47;2.05;;;14.00;99.90;;;;;;4986489;28;20057;-50
2021/11/01 01:02:44;;;;;;;2.53;1.95;;;14.00;99.90;;;;;;4987077;28;20045;-53
2021/11/01 01:05:10;;;;;;;2.33;2.08;;;14.00;99.90;;;;;;4987419;28;20045;-56
2021/11/01 01:07:36;;;;;;;1.85;1.70;;;14.00;99.90;;;;;;4987009;28;20046;-55
2021/11/01 01:10:05;;;;;;;3.03;1.70;;;14.00;99.90;;;;;;4986223;28;20030;-55
2021/11/01 01:12:31;;;;;;;2.67;1.83;;;13.90;99.90;;;;;;4979735;28;20045;-54
2021/11/01 01:14:59;;;;;;;5.07;1.70;;;13.80;99.90;;;;;;4971760;28;20027;-54
2021/11/01 01:17:26;;;;;;;1.63;1.52;;;13.80;99.90;;;;;;4967675;28;20030;-54
2021/11/01 01:20:13;;;;;;;2.28;1.40;;;13.70;99.90;;;;;;4979028;28;20080;-56
2021/11/01 01:22:39;;;;;;;3.70;1.17;;;13.70;99.90;;;;;;5069562;22;20044;-53
2021/11/01 01:25:17;;;;;;;3.15;1.17;;;13.60;99.90;;;;;;5068457;28;20119;-54
2021/11/01 01:27:44;;;;;;;3.03;1.23;;;13.60;99.90;;;;;;5068922;28;20024;-52
2021/11/01 01:30:11;;;;;;;5.32;1.70;;;13.60;99.90;;;;;;5068493;28;20083;-52
2021/11/01 01:32:37;;;;;;;2.40;1.20;;;13.50;99.90;;;;;;5070156;28;20024;-56
2021/11/01 01:35:03;;;;;;;6.57;1.75;;;13.40;99.90;;;;;;5067097;28;20056;-55
2021/11/01 01:37:28;;;;;;;9.55;1.80;;;13.40;99.90;;;;;;5068163;28;20130;-51
2021/11/01 01:39:54;;;;;;;7.03;2.22;;;13.30;99.90;;;;;;5068312;28;20028;-53
2021/11/01 01:42:20;;;;;;;7.25;1.65;;;13.30;99.90;;;;;;5068148;28;20381;-52
2021/11/01 01:44:46;;;;;;;4.35;1.73;;;13.30;99.90;;;;;;5068045;28;20028;-51
2021/11/01 01:47:11;;;;;;;4.82;1.73;;;13.20;99.90;;;;;;5068105;28;20500;-52
2021/11/01 01:49:37;;;;;;;9.32;1.83;;;13.20;99.90;;;;;;5068176;28;20070;-56
2021/11/01 01:52:04;;;;;;;6.75;1.58;;;13.10;99.90;;;;;;5059837;28;20097;-52
2021/11/01 01:54:30;;;;;;;7.65;2.10;;;13.00;99.90;;;;;;5068957;28;20403;-55
2021/11/01 01:56:55;;;;;;;8.52;1.75;;;13.00;99.90;;;;;;5067750;28;20107;-56
2021/11/01 01:59:22;;;;;;;7.63;1.30;;;12.90;99.90;;;;;;5064293;28;20034;-51
2021/11/01 02:01:49;;;;;;;10.70;1.75;;;12.90;99.90;;;;;;5065349;28;20664;-52
2021/11/01 02:04:26;;;;;;;8.02;1.95;;;12.80;99.90;;;;;;5065051;28;20036;-54
2021/11/01 02:07:16;;;;;;;5.32;1.67;;;12.80;99.90;;;;;;5073778;28;20094;-56
2021/11/01 02:09:52;;;;;;;7.05;1.67;;;12.70;99.90;;;;;;5074147;28;20029;-55
2021/11/01 02:12:44;;;;;;;9.70;2.55;;;12.70;99.90;;;;;;5074264;28;20042;-52
2021/11/01 02:15:23;;;;;;;8.75;1.75;;;12.70;99.90;;;;;;5073583;28;20040;-55
2021/11/01 02:17:51;;;;;;;6.30;1.73;;;12.60;99.90;;;;;;5061188;28;20102;-52
2021/11/01 02:20:40;;;;;;;4.63;1.42;;;12.60;99.90;;;;;;5073892;28;20663;-56
2021/11/01 02:23:32;;;;;;;11.77;2.50;;;12.50;99.90;;;;;;5074242;28;20040;-53
2021/11/01 02:26:00;;;;;;;7.20;1.50;;;12.50;99.90;;;;;;5074606;28;20085;-55
2021/11/01 02:28:32;;;;;;;5.72;1.70;;;12.50;99.90;;;;;;5074154;28;20602;-54
2021/11/01 02:30:59;;;;;;;10.02;2.10;;;12.40;99.90;;;;;;5073677;28;20392;-52
2021/11/01 02:33:27;;;;;;;8.25;2.05;;;12.40;99.90;;;;;;5074296;28;20095;-55
2021/11/01 02:35:53;;;;;;;9.57;2.60;;;12.40;99.90;;;;;;5074611;28;20024;-52
2021/11/01 02:38:22;;;;;;;8.82;2.35;;;12.30;99.90;;;;;;5074468;28;20434;-52
2021/11/01 02:40:49;;;;;;;12.13;2.17;;;12.30;99.90;;;;;;5073472;28;20036;-53
2021/11/01 02:43:16;;;;;;;9.40;2.30;;;12.30;99.90;;;;;;5074212;28;20107;-52
2021/11/01 02:45:42;;;;;;;12.50;2.85;;;12.30;99.90;;;;;;5074313;28;20033;-53
2021/11/01 02:48:08;;;;;;;7.47;1.58;;;12.20;99.90;;;;;;5074383;28;20088;-54
2021/11/01 02:50:34;;;;;;;11.23;2.40;;;12.20;99.90;;;;;;5072478;28;20033;-54
2021/11/01 02:53:00;;;;;;;5.68;1.58;;;12.20;99.90;;;;;;5078423;28;20004;-53
2021/11/01 02:55:26;;;;;;;10.88;2.47;;;12.20;99.90;;;;;;5075753;28;20437;-56
2021/11/01 02:57:52;;;;;;;9.35;2.10;;;12.10;99.90;;;;;;5070774;28;20055;-53
2021/11/01 03:00:21;;;;;;;7.72;2.30;;;12.10;99.90;;;;;;5072828;28;20028;-53
2021/11/01 03:02:48;;;;;;;8.70;1.65;;;12.10;99.90;;;;;;5074222;28;20027;-51
2021/11/01 03:05:17;;;;;;;9.68;1.92;;;12.10;99.90;;;;;;5072540;28;20107;-56
2021/11/01 03:07:44;;;;;;;9.23;1.80;;;12.10;99.90;;;;;;5074446;28;20028;-53
2021/11/01 03:10:11;;;;;;;11.00;1.50;;;12.00;99.90;;;;;;5073509;28;20040;-52
2021/11/01 03:12:38;;;;;;;8.40;2.42;;;12.00;99.90;;;;;;5073900;28;20507;-52
2021/11/01 03:15:06;;;;;;;11.02;2.75;;;12.00;99.90;;;;;;5073918;28;20052;-53
2021/11/01 03:17:40;;;;;;;12.38;2.63;;;11.90;99.90;;;;;;5069948;28;20103;-55
2021/11/01 03:20:09;;;;;;;8.23;1.50;;;11.90;99.90;;;;;;5070601;28;20055;-55
2021/11/01 03:22:41;;;;;;;9.20;1.58;;;11.80;99.90;;;;;;5070634;28;20068;-55
2021/11/01 03:25:18;;;;;;;6.25;2.05;;;11.80;99.90;;;;;;5069339;28;20032;-54
2021/11/01 03:27:46;;;;;;;7.32;1.90;;;11.80;99.90;;;;;;5069477;28;20078;-55
2021/11/01 03:30:15;;;;;;;11.20;2.05;;;11.70;99.90;;;;;;5070193;28;20040;-52
2021/11/01 03:32:41;;;;;;;6.82;2.10;;;11.70;99.90;;;;;;5070497;28;20127;-54
2021/11/01 03:35:08;;;;;;;4.47;1.40;;;11.60;99.90;;;;;;5070710;28;20039;-54
2021/11/01 03:37:34;;;;;;;6.82;1.60;;;11.60;99.90;;;;;;5071000;28;20456;-54
2021/11/01 03:40:01;;;;;;;8.98;1.90;;;11.60;99.90;;;;;;5069063;28;20140;-53
2021/11/01 03:42:27;;;;;;;7.07;1.70;;;11.50;99.90;;;;;;5070421;28;20111;-54
2021/11/01 03:45:00;;;;;;;6.25;1.77;;;11.50;99.90;;;;;;5068568;28;20032;-53
2021/11/01 03:47:30;;;;;;;10.25;1.80;;;11.50;99.90;;;;;;5070176;28;20536;-53
2021/11/01 03:50:00;;;;;;;7.47;2.00;;;11.50;99.90;;;;;;5070181;28;20582;-51
2021/11/01 03:52:32;;;;;;;7.68;2.28;;;11.50;99.90;;;;;;5069735;28;20484;-56
2021/11/01 03:54:57;;;;;;;6.78;2.15;;;11.40;99.90;;;;;;5063021;28;20488;-53
2021/11/01 03:57:23;;;;;;;6.90;1.73;;;11.40;99.90;;;;;;5068946;28;20107;-54
2021/11/01 03:59:52;;;;;;;11.90;2.92;;;11.40;99.90;;;;;;5070187;28;20024;-53
2021/11/01 04:02:20;;;;;;;9.27;2.38;;;11.30;99.90;;;;;;5068907;28;20028;-55
2021/11/01 04:04:48;;;;;;;7.43;2.15;;;11.30;99.90;;;;;;5070299;28;20025;-51
2021/11/01 04:07:14;;;;;;;8.88;2.00;;;11.30;99.90;;;;;;5070197;28;20036;-52
2021/11/01 04:09:40;;;;;;;9.95;2.33;;;11.20;99.90;;;;;;5069570;28;20044;-52
2021/11/01 04:12:07;;;;;;;11.52;2.00;;;11.20;99.90;;;;;;5070223;28;20051;-54
2021/11/01 04:14:40;;;;;;;6.15;1.48;;;11.20;99.90;;;;;;5069623;28;20502;-55
2021/11/01 04:17:11;;;;;;;13.63;2.78;;;11.20;99.90;;;;;;5069751;28;20108;-54
2021/11/01 04:19:46;;;;;;;13.07;3.53;;;11.20;99.90;;;;;;5069669;28;20423;-52
2021/11/01 04:22:11;;;;;;;8.52;1.90;;;11.20;99.90;;;;;;5069950;28;20038;-53
2021/11/01 04:24:37;;;;;;;6.63;1.73;;;11.20;99.90;;;;;;5070127;28;20032;-53
2021/11/01 04:27:04;;;;;;;10.23;2.47;;;11.10;99.90;;;;;;5068934;28;20020;-54
2021/11/01 04:29:32;;;;;;;9.43;2.25;;;11.10;99.90;;;;;;5068599;28;20495;-53
2021/11/01 04:32:10;;;;;;;9.98;1.75;;;11.20;99.90;;;;;;5069426;28;20070;-56
2021/11/01 04:34:39;;;;;;;5.95;1.73;;;11.10;99.90;;;;;;5068886;28;20090;-53
2021/11/01 04:37:05;;;;;;;11.93;1.98;;;11.10;99.90;;;;;;5068972;28;20400;-56
2021/11/01 04:39:40;;;;;;;4.10;2.20;;;11.10;99.90;;;;;;5068750;28;20032;-53
2021/11/01 04:55:17;;;;;;;10.07;2.25;;;11.00;99.90;;;;;;5072839;28;20132;-53
2021/11/01 04:57:43;;;;;;;8.82;1.92;;;11.00;99.90;;;;;;5068543;28;20031;-53
2021/11/01 05:00:09;;;;;;;11.75;2.42;;;11.00;99.90;;;;;;5068378;28;20067;-53
2021/11/01 05:02:37;;;;;;;12.10;2.55;;;11.00;99.90;;;;;;5068809;28;20466;-53
2021/11/01 05:05:03;;;;;;;6.03;1.20;;;11.00;99.90;;;;;;5069129;28;20039;-52
2021/11/01 05:07:29;;;;;;;10.55;2.58;;;11.00;99.90;;;;;;5068756;28;20032;-53
2021/11/01 05:10:03;;;;;;;8.02;2.40;;;11.00;99.90;;;;;;5068271;28;20086;-53
2021/11/01 05:12:36;;;;;;;14.88;2.47;;;10.90;99.90;;;;;;5068801;28;20070;-52
2021/11/01 05:17:45;;;;;;;12.00;2.70;;;10.90;99.90;;;;;;5067300;28;20028;-52
2021/11/01 05:25:09;;;;;;;7.07;2.63;;;10.90;99.90;;;;;;5068988;28;20024;-54
2021/11/01 05:30:26;;;;;;;11.32;2.63;;;10.90;99.90;;;;;;5068196;28;20101;-52
2021/11/01 05:33:05;;;;;;;10.20;2.42;;;10.80;99.90;;;;;;5068888;28;20024;-53
2021/11/01 05:35:32;;;;;;;10.20;1.98;;;10.90;99.90;;;;;;5068190;28;20484;-52
2021/11/01 05:37:58;;;;;;;8.05;2.35;;;10.80;99.90;;;;;;5068395;28;20480;-52
2021/11/01 05:40:24;;;;;;;10.30;2.78;;;10.80;99.90;;;;;;5067099;28;20040;-53
2021/11/01 05:42:50;;;;;;;10.23;1.70;;;10.80;99.90;;;;;;5066181;28;20020;-55
2021/11/01 05:45:17;;;;;;;13.13;2.85;;;10.80;99.90;;;;;;5068536;28;20082;-51
2021/11/01 05:47:48;;;;;;;9.25;2.58;;;10.80;99.90;;;;;;5068175;28;20024;-53
2021/11/01 05:50:13;;;;;;;10.15;2.95;;;10.80;99.90;;;;;;5067801;28;20111;-52
2021/11/01 05:52:42;;;;;;;9.00;2.15;;;10.80;99.90;;;;;;5069265;28;20099;-54
2021/11/01 05:55:21;;;;;;;8.05;2.17;;;10.80;99.90;;;;;;5079940;28;20020;-54
2021/11/01 05:58:02;;;;;;;8.32;2.63;;;10.70;99.90;;;;;;5068422;28;20384;-52
2021/11/01 06:03:38;;;;;;;13.15;2.30;;;10.70;99.90;;;;;;5068135;28;20028;-53
2021/11/01 06:15:52;;;;;;;13.90;2.63;;;10.70;99.90;;;;;;5067648;28;20086;-54
2021/11/01 06:18:18;;;;;;;9.40;2.78;;;10.70;99.90;;;;;;5065478;28;20024;-53
2021/11/01 06:20:44;;;;;;;11.77;3.10;;;10.60;99.90;;;;;;5056501;28;20028;-53
2021/11/01 06:23:10;;;;;;;10.48;3.45;;;10.60;99.90;;;;;;5067239;28;20675;-53
2021/11/01 06:25:37;;;;;;;9.57;3.60;;;10.60;99.90;;;;;;5067765;28;20032;-53
2021/11/01 06:28:03;;;;;;;12.35;3.90;;;10.60;99.90;;;;;;5067100;28;20504;-54
2021/11/01 06:30:40;;;;;;;16.17;2.97;;;10.60;99.90;;;;;;5067154;28;20060;-52
2021/11/01 06:52:01;;;;;;;8.70;3.10;;;10.60;99.90;;;;;;5068780;28;20067;-52
2021/11/01 07:16:18;;;;;;;10.63;3.58;;;10.60;99.90;;;;;;5070768;28;20094;-52
2021/11/01 07:18:54;;;;;;;8.65;3.90;;;10.50;99.90;;;;;;5070163;28;20112;-53
2021/11/01 08:21:43;;;;;;;8.65;2.97;;;10.90;99.90;;;;;;5049662;28;20036;-55
2021/11/01 08:29:41;;;;;;;7.32;2.30;;;11.00;99.90;;;;;;5068863;28;20028;-49
2021/11/01 08:38:12;;;;;;;6.00;1.90;;;11.10;99.90;;;;;;5068479;28;20063;-51
2021/11/01 08:46:09;;;;;;;6.78;2.53;;;11.20;99.90;;;;;;5069209;28;20051;-51
2021/11/01 08:48:51;;;;;;;5.68;1.90;;;11.20;99.90;;;;;;5068519;28;20028;-53
2021/11/01 09:20:28;;;;;;;12.43;1.85;;;11.60;99.90;;;;;;5067965;28;20148;-53
2021/11/01 09:25:53;;;;;;;5.32;1.80;;;11.70;99.90;;;;;;5029877;28;1084371;-49
2021/11/01 09:36:38;;;;;;;5.35;1.27;;;11.90;99.90;;;;;;5068942;28;20561;-50
2021/11/01 09:39:29;;;;;;;7.53;1.88;;;11.80;99.90;;;;;;5068245;28;20085;-52
2021/11/01 09:41:51;;;;;;;5.60;1.48;;;11.90;99.90;;;;;;5067846;28;20036;-53
2021/11/01 09:44:23;;;;;;;4.57;1.55;;;11.80;99.90;;;;;;5066816;28;20020;-51
2021/11/01 09:46:49;;;;;;;7.05;2.28;;;11.80;99.90;;;;;;5068745;28;20107;-54
2021/11/01 09:49:15;;;;;;;9.73;2.15;;;11.90;99.90;;;;;;5068632;28;20100;-50
2021/11/01 09:51:43;;;;;;;7.32;2.63;;;11.90;99.90;;;;;;5068923;28;20077;-52
2021/11/01 09:54:18;;;;;;;8.70;1.48;;;11.90;99.90;;;;;;5073984;28;20504;-49
2021/11/01 09:56:48;;;;;;;7.10;2.17;;;11.90;99.90;;;;;;5067905;28;20465;-54
2021/11/01 09:59:15;;;;;;;5.43;1.67;;;11.90;99.90;;;;;;5068086;28;20496;-49
2021/11/01 10:01:43;;;;;;;7.25;1.75;;;11.90;99.90;;;;;;5067725;28;20107;-52
2021/11/01 10:04:18;;;;;;;10.15;2.47;;;11.90;99.90;;;;;;5067635;28;20103;-53
2021/11/01 10:06:49;;;;;;;3.00;1.83;;;12.00;99.90;;;;;;5067455;28;20397;-50
2021/11/01 10:09:14;;;;;;;10.55;2.13;;;12.10;99.90;;;;;;5067430;28;20059;-48
2021/11/01 10:11:44;;;;;;;4.80;1.63;;;12.10;99.90;;;;;;5067192;28;20074;-53
2021/11/01 10:14:11;;;;;;;4.05;1.40;;;12.10;99.90;;;;;;5067957;28;20025;-52
2021/11/01 10:19:32;;;;;;;7.60;1.88;;;12.20;99.90;;;;;;5067215;28;20051;-52
2021/11/01 10:22:04;;;;;;;5.85;1.58;;;12.20;99.90;;;;;;5067391;28;20031;-51
2021/11/01 10:24:39;;;;;;;3.40;1.80;;;12.10;99.90;;;;;;5067674;28;20104;-52
2021/11/01 10:27:10;;;;;;;9.52;1.98;;;12.10;99.90;;;;;;5069351;28;20052;-56
2021/11/01 10:29:52;;;;;;;7.07;1.83;;;12.20;99.90;;;;;;5070004;28;20042;-50
2021/11/01 10:32:33;;;;;;;4.63;1.70;;;12.20;99.90;;;;;;5071776;28;20036;-49
2021/11/01 10:35:23;;;;;;;3.67;1.60;;;12.20;99.90;;;;;;5071950;28;20055;-52
2021/11/01 10:40:37;;;;;;;7.80;1.83;;;12.20;99.90;;;;;;5071549;28;20055;-51
2021/11/01 10:43:37;;;;;;;6.30;1.48;;;12.30;99.90;;;;;;5072117;28;20033;-53
2021/11/01 11:13:19;;;;;;;7.70;1.83;;;12.60;99.90;;;;;;5071470;28;20032;-51
2021/11/01 11:15:51;;;;;;;5.15;2.28;;;12.60;99.90;;;;;;5071327;28;20032;-52
2021/11/01 11:31:41;;;;;;;3.80;1.50;;;13.00;99.90;;;;;;5071087;28;20056;-56
2021/11/01 11:39:48;;;;;;;4.72;1.73;;;12.80;99.90;;;;;;5069323;28;20032;-52
2021/11/01 11:50:32;;;;;;;6.70;2.17;;;13.10;99.90;;;;;;5070981;28;20044;-52
2021/11/01 11:53:14;;;;;;;7.13;2.20;;;13.10;99.90;;;;;;5069986;28;20029;-50
2021/11/01 11:55:41;;;;;;;6.72;2.67;;;13.10;99.90;;;;;;5070615;28;20400;-54
2021/11/01 11:58:10;;;;;;;5.30;1.63;;;13.10;99.90;;;;;;5067707;28;20028;-51
2021/11/01 12:00:37;;;;;;;3.97;1.33;;;13.10;99.90;;;;;;5070082;28;20039;-52
2021/11/01 12:03:12;;;;;;;3.08;1.45;;;13.20;99.90;;;;;;5070998;28;20033;-52
2021/11/01 12:05:56;;;;;;;6.13;1.83;;;13.20;99.90;;;;;;5069239;28;20036;-50
2021/11/01 12:08:37;;;;;;;5.47;1.58;;;13.20;99.90;;;;;;5070720;28;20401;-50
2021/11/01 12:19:06;;;;;;;6.05;1.58;;;13.10;99.90;;;;;;5067882;28;20112;-51
2021/11/01 12:21:38;;;;;;;5.22;1.83;;;13.00;99.90;;;;;;5069483;28;20107;-54
2021/11/01 12:24:12;;;;;;;6.47;2.72;;;13.00;99.90;;;;;;5070120;28;20030;-52
2021/11/01 12:26:43;;;;;;;6.55;3.22;;;13.00;99.90;;;;;;5070160;28;20036;-56
2021/11/01 12:29:11;;;;;;;5.80;2.17;;;12.90;99.90;;;;;;5070132;28;20440;-52
2021/11/01 12:31:38;;;;;;;5.68;1.75;;;13.00;99.90;;;;;;5069910;28;20029;-53
2021/11/01 12:34:18;;;;;;;4.75;2.53;;;12.90;99.90;;;;;;5070195;28;20033;-49
2021/11/01 12:36:56;;;;;;;3.90;1.60;;;13.00;99.90;;;;;;5069202;28;20051;-55
2021/11/01 12:39:50;;;;;;;3.00;1.42;;;13.00;99.90;;;;;;5068709;28;20046;-54
2021/11/01 12:45:40;;;;;;;6.85;2.40;;;13.00;99.90;;;;;;5070202;28;20028;-53
2021/11/01 12:59:43;;;;;;;2.42;1.95;;;13.10;99.90;;;;;;5089375;28;20541;-49
2021/11/01 13:02:33;;;;;;;5.00;2.90;;;13.10;99.90;;;;;;5089303;28;20028;-51
2021/11/01 13:05:04;;;;;;;5.80;1.80;;;13.10;99.90;;;;;;5089740;28;20081;-52
2021/11/01 13:07:46;;;;;;;4.45;1.63;;;13.10;99.90;;;;;;5089505;28;20103;-49
2021/11/01 13:20:27;;;;;;;4.60;1.70;;;13.10;99.90;;;;;;5068515;28;20035;-51
2021/11/01 13:22:57;;;;;;;3.90;1.55;;;13.00;99.90;;;;;;5068674;28;20028;-51
2021/11/01 13:36:38;;;;;;;7.68;1.85;;;12.90;99.90;;;;;;5068269;28;20506;-52
2021/11/01 13:39:06;;;;;;;5.28;1.85;;;12.80;99.90;;;;;;5067697;28;20546;-50
2021/11/01 13:41:32;;;;;;;1.60;1.50;;;12.80;99.90;;;;;;5067461;28;20353;-53
2021/11/01 13:44:13;;;;;;;5.60;2.50;;;12.80;99.90;;;;;;5068827;28;20028;-54
2021/11/01 13:47:06;;;;;;;3.33;2.05;;;12.80;99.90;;;;;;5048607;28;20032;-51
2021/11/01 13:49:35;;;;;;;8.45;1.98;;;12.70;99.90;;;;;;5051917;28;20500;-52
2021/11/01 13:52:15;;;;;;;3.95;2.10;;;12.70;99.90;;;;;;5068441;28;20100;-51
2021/11/01 13:55:03;;;;;;;4.10;2.15;;;12.60;99.90;;;;;;5085141;28;20031;-53
2021/11/01 13:57:32;;;;;;;2.25;2.05;;;12.60;99.90;;;;;;5072362;28;20064;-51
2021/11/01 14:11:33;;;;;;;3.33;1.92;;;12.30;99.90;;;;;;5067497;28;20063;-53
2021/11/01 14:27:47;;;;;;;2.25;1.65;;;12.20;99.90;;;;;;5065910;28;20049;-57
2021/11/01 14:33:02;;;;;;;4.22;2.35;;;12.20;99.90;;;;;;5068221;28;20025;-53
2021/11/01 15:24:44;;;;;;;3.10;1.90;;;11.50;99.90;;;;;;5060387;28;20085;-53
2021/11/01 16:17:07;;;;;;;7.03;2.40;;;10.40;99.90;;;;;;5059301;28;20079;-53
2021/11/01 16:19:05;;;;;;;4.68;2.28;;;10.40;99.90;;;;;;5055874;28;20102;-53
2021/11/01 16:21:32;;;;;;;4.40;2.30;;;10.40;99.90;;;;;;5058287;28;20123;-53
2021/11/01 16:23:58;;;;;;;3.97;2.33;;;10.30;99.90;;;;;;5059162;28;20025;-50
2021/11/01 16:26:26;;;;;;;5.65;2.42;;;10.30;99.90;;;;;;5058314;28;20266;-53
2021/11/01 16:29:10;;;;;;;3.28;2.25;;;10.30;99.90;;;;;;5059646;28;20055;-52
2021/11/01 16:31:49;;;;;;;3.80;2.50;;;10.30;99.90;;;;;;5059413;28;20439;-54
2021/11/01 16:34:27;;;;;;;3.70;2.08;;;10.20;99.90;;;;;;5059412;28;20021;-54
2021/11/01 16:39:27;;;;;;;2.83;2.05;;;10.10;99.90;;;;;;5059238;28;20244;-53
2021/11/01 16:41:53;;;;;;;4.25;2.00;;;10.10;99.90;;;;;;5061488;28;20056;-51
2021/11/01 16:44:31;;;;;;;4.13;2.83;;;10.10;99.90;;;;;;5059751;28;20073;-54
2021/11/01 16:46:57;;;;;;;3.75;2.38;;;10.00;99.90;;;;;;5061520;28;20012;-53
2021/11/01 16:49:24;;;;;;;4.75;2.25;;;10.00;99.90;;;;;;5059412;28;20520;-52
2021/11/01 16:51:51;;;;;;;7.47;2.45;;;10.00;99.90;;;;;;5061527;28;20032;-52
2021/11/01 16:54:25;;;;;;;5.47;2.25;;;10.00;99.90;;;;;;5060640;28;20098;-53
2021/11/01 16:59:34;;;;;;;4.35;2.20;;;9.90;99.90;;;;;;5060052;28;20444;-54
2021/11/01 17:02:18;;;;;;;6.97;2.38;;;9.90;99.90;;;;;;5062756;28;20044;-52
2021/11/01 17:04:55;;;;;;;4.38;2.50;;;9.80;99.90;;;;;;5060838;28;20055;-53
2021/11/01 17:24:08;;;;;;;3.38;2.30;;;9.60;99.90;;;;;;5034266;28;20037;-53
2021/11/01 17:35:51;;;;;;;5.07;3.58;;;9.30;99.90;;;;;;5024890;28;20120;-52
2021/11/01 18:39:18;;;;;;;8.38;4.40;;;8.30;99.90;;;;;;5057855;28;20139;-52
2021/11/01 18:52:38;;;;;;;6.28;4.65;;;8.20;99.90;;;;;;5062721;28;20090;-51
2021/11/01 18:55:08;;;;;;;10.00;4.85;;;8.20;99.90;;;;;;5063974;28;20062;-56
2021/11/01 18:57:35;;;;;;;7.57;5.13;;;8.20;99.90;;;;;;5061732;28;20021;-53
2021/11/01 19:00:05;;;;;;;5.15;4.10;;;8.10;99.90;;;;;;5060265;28;20784;-52
2021/11/01 19:05:09;;;;;;;6.68;3.78;;;8.10;99.90;;;;;;5062297;28;20029;-56
2021/11/01 19:10:55;;;;;;;7.10;3.75;;;8.00;99.90;;;;;;5060858;28;20523;-51
2021/11/01 20:06:12;;;;;;;5.90;4.15;;;7.40;99.90;;;;;;5042662;28;20048;-51
2021/11/01 20:09:18;;;;;;;10.23;4.53;;;7.40;99.90;;;;;;5056861;28;20044;-55
2021/11/01 21:26:30;;;;;;;7.65;3.90;;;6.90;99.90;;;;;;5059721;28;20047;-53
2021/11/01 21:28:56;;;;;;;5.00;3.63;;;6.90;99.90;;;;;;5056672;28;20049;-51
2021/11/01 21:31:22;;;;;;;4.43;3.53;;;6.90;99.90;;;;;;5059056;28;20036;-55
2021/11/01 21:33:52;;;;;;;8.35;3.67;;;6.90;99.90;;;;;;5058498;28;20660;-55
2021/11/01 21:36:24;;;;;;;6.28;3.60;;;7.00;99.90;;;;;;5058217;28;20025;-53
2021/11/01 21:38:52;;;;;;;6.63;4.20;;;6.90;99.90;;;;;;5058091;28;20024;-52
2021/11/01 21:41:17;;;;;;;7.70;3.97;;;6.90;99.90;;;;;;5056640;28;20114;-51
2021/11/01 21:43:43;;;;;;;5.45;2.90;;;6.90;99.90;;;;;;5058379;28;20060;-51
2021/11/01 21:46:09;;;;;;;4.82;3.45;;;6.90;99.90;;;;;;5058305;28;20021;-51
2021/11/01 21:48:35;;;;;;;4.43;3.10;;;6.90;99.90;;;;;;5057752;28;20035;-50
2021/11/01 21:51:00;;;;;;;3.58;2.85;;;6.90;99.90;;;;;;5057524;28;20035;-52
2021/11/01 21:53:27;;;;;;;7.28;3.08;;;6.90;99.90;;;;;;5057221;28;20143;-52
2021/11/01 21:55:53;;;;;;;3.85;2.40;;;6.90;99.90;;;;;;5056872;28;20040;-53
2021/11/01 22:19:48;;;;;;;5.13;2.42;;;6.90;99.90;;;;;;5057493;28;20021;-53
2021/11/01 22:22:30;;;;;;;5.28;2.72;;;6.90;99.90;;;;;;5057848;28;20051;-54
2021/11/01 22:25:03;;;;;;;5.70;2.15;;;6.90;99.90;;;;;;5063107;28;20039;-54
2021/11/01 22:40:50;;;;;;;9.10;3.20;;;6.90;99.90;;;;;;5061955;28;20021;-55
2021/11/01 22:46:10;;;;;;;6.88;3.33;;;6.90;99.90;;;;;;5061424;28;20021;-51
2021/11/01 22:56:56;;;;;;;3.75;2.20;;;7.00;99.90;;;;;;5060901;28;20511;-53
2021/11/01 22:59:21;;;;;;;4.25;2.47;;;7.00;99.90;;;;;;5061744;28;20025;-51
2021/11/01 23:01:48;;;;;;;4.95;2.65;;;7.00;99.90;;;;;;5060947;28;20054;-52
2021/11/01 23:33:48;;;;;;;6.70;3.30;;;6.90;99.90;;;;;;5059351;28;20071;-50
2021/11/01 23:36:13;;;;;;;7.18;2.50;;;6.90;99.90;;;;;;5060512;28;20051;-51
2021/11/01 23:38:39;;;;;;;4.85;2.35;;;6.80;99.90;;;;;;5060208;28;20067;-52
2021/11/01 23:41:05;;;;;;;2.58;2.17;;;6.90;99.90;;;;;;5059511;28;20149;-54
2021/11/01 23:43:31;;;;;;;4.15;2.15;;;6.80;99.90;;;;;;5060261;28;20029;-54
2021/11/01 23:45:56;;;;;;;3.85;2.42;;;6.80;99.90;;;;;;5060731;28;20107;-55
2021/11/01 23:48:22;;;;;;;5.90;2.30;;;6.80;99.90;;;;;;5058326;28;20139;-50
2021/11/01 23:50:49;;;;;;;4.18;2.45;;;6.80;99.90;;;;;;5059309;28;20025;-51
2021/11/01 23:53:36;;;;;;;6.72;2.72;;;6.80;99.90;;;;;;5059546;28;20108;-53
2021/11/01 23:56:04;;;;;;;5.60;2.53;;;6.80;99.90;;;;;;5060791;28;20013;-54
2021/11/01 23:58:29;;;;;;;6.20;2.30;;;6.80;99.90;;;;;;5058886;28;20025;-50
